Contact Us:
Email: info@sawbill.com
Phone: (218)663-7150
Fax: (218)663-7980
Mail: 4620 Sawbill Trail
Box 2129
Tofte, MN 55615


Powered by
Movable Type 3.15
 
Sawbill Weather History Archives: July 2016
Current Sawbill Weather History | « June 2016 | August 2016 »


Date

High
Temperature

Low
Temperature

Barometric
Pressure

Relative
Humidity 7AM

9 AM
Temperature

Moisture

Snow

7/31/16 76 54 30.06 71% 55 0
7/30/16 74 48 30.06 73% 54 0
7/29/16 80 48 30.04 88% 48 0
7/28/16 72 48 30.10 70% 48 0
7/27/16 71 54 30.04 75% 54 .03"
7/26/16 80 62 30.04 68% 63 .02"
7/25/16 77 62 30.04 87% 64 .04"
7/24/16 78 62 30.01 88% 77 0
7/23/16 77 61 29.86 88% 63 Trace
7/22/16 83 60 30.04 74% 61 0
7/21/16 82 60 30.00 79% 60 0
7/20/16 86 58 29.90 98% 67 .26"
7/19/16 77 47 30.08 76% 58 0
7/18/16 70 47 30.18 74% 47 0
7/17/16 73 56 30.04 94% 56 .42"
7/16/16 73 45 29.94 86% 57 0
7/15/16 65 45 30.04 79% 45 0
7/14/16 62 51 30.02 85% 51 Trace
7/13/16 72 62 29.82 98% 62 .41"
7/12/16 78 63 29.72 65% 65 0
7/11/16 67 62 29.74 98% 63 1.11"
7/10/16 73 54 29.90 90% 62 0
7/9/16 71 60 30.00 74% 60 0
7/8/16 68 58 30.10 84% 60 .15"
7/7/16 73 57 29.84 98% 58 .42"
7/6/16 80 56 29.94 71% 57 0
7/5/16 80 57 29.98 96% 59 Trace
7/4/16 75 55 29.86 96% 56 .51"
7/3/16 76 54 29.96 76% 58 0
7/2/16 74 51 30.10 74% 60 0
7/1/16 69 49 30.12 76% 54 0
 


Home I Trip Planning I Rentals and Outfitting I Reservations I Campgrounds I Sawbill Store I Sawbill News I Contact

© 1997 - 2017, Sawbill Canoe Outfitters, Inc. I Privacy Policy